KBGE/BGE METAR and TAF weather

Enter ICAO airport designator
Station Type Date Time Source
KBGE METAR 2021/08/05 05:15 UTC NOAA

KBGE 050515Z AUTO 08007KT 10SM BKN120 25/22 A3001 RMK AO2 T02480222


Station Type Date Time Source
KBGE Decoded METAR 2021/08/05 05:15 UTC NOAA

Bainbridge, Decatur County Industrial Air Park Airport, GA, United States (KBGE) 30-58N 084-38W
Aug 05, 2021 - 01:15 AM EDT / 2021.08.05 0515 UTC
Wind: from the E (080 degrees) at 8 MPH (7 KT):0
Visibility: 10 mile(s):0
Sky conditions: mostly cloudy
Temperature: 76.6 F (24.8 C)
Dew Point: 72.0 F (22.2 C)
Relative Humidity: 85%
Pressure (altimeter): 30.01 in. Hg (1016 hPa)
ob: KBGE 050515Z AUTO 08007KT 10SM BKN120 25/22 A3001 RMK AO2 T02480222
cycle: 5

Station Type Date Time Source
KBGE TAF UTC NOAA

Error!

Example: see airport list